sensor_id;sensor_type;location;lat;lon;timestamp;pressure;altitude;pressure_sealevel;temperature;humidity
24280;BME280;12395;42.808;23.408;2023-11-18T00:01:43;94168.06;;;6.76;100.00
24280;BME280;12395;42.808;23.408;2023-11-18T00:04:09;94168.47;;;6.73;100.00
24280;BME280;12395;42.808;23.408;2023-11-18T00:06:43;94158.56;;;6.62;100.00
24280;BME280;12395;42.808;23.408;2023-11-18T00:09:10;94149.22;;;6.59;100.00
24280;BME280;12395;42.808;23.408;2023-11-18T00:11:43;94142.16;;;6.60;100.00
24280;BME280;12395;42.808;23.408;2023-11-18T00:14:09;94155.53;;;6.58;100.00
24280;BME280;12395;42.808;23.408;2023-11-18T00:16:36;94152.28;;;6.56;100.00
24280;BME280;12395;42.808;23.408;2023-11-18T00:19:02;94144.78;;;6.47;100.00
24280;BME280;12395;42.808;23.408;2023-11-18T00:21:30;94155.09;;;6.55;100.00
24280;BME280;12395;42.808;23.408;2023-11-18T00:23:55;94156.94;;;6.48;100.00
24280;BME280;12395;42.808;23.408;2023-11-18T00:26:21;94181.41;;;6.55;100.00
24280;BME280;12395;42.808;23.408;2023-11-18T00:28:46;94189.72;;;6.52;100.00
24280;BME280;12395;42.808;23.408;2023-11-18T00:31:13;94205.91;;;6.55;100.00
24280;BME280;12395;42.808;23.408;2023-11-18T00:33:39;94196.41;;;6.48;100.00
24280;BME280;12395;42.808;23.408;2023-11-18T00:36:05;94160.53;;;6.40;100.00
24280;BME280;12395;42.808;23.408;2023-11-18T00:38:32;94134.41;;;6.26;100.00
24280;BME280;12395;42.808;23.408;2023-11-18T00:40:57;94145.75;;;6.26;100.00
24280;BME280;12395;42.808;23.408;2023-11-18T00:43:22;94148.19;;;6.28;100.00
24280;BME280;12395;42.808;23.408;2023-11-18T00:45:48;94156.88;;;6.28;100.00
24280;BME280;12395;42.808;23.408;2023-11-18T00:48:13;94160.13;;;6.23;100.00
24280;BME280;12395;42.808;23.408;2023-11-18T00:50:40;94167.78;;;6.18;100.00
24280;BME280;12395;42.808;23.408;2023-11-18T00:53:05;94169.19;;;6.21;100.00
24280;BME280;12395;42.808;23.408;2023-11-18T00:55:31;94177.88;;;6.15;100.00
24280;BME280;12395;42.808;23.408;2023-11-18T00:57:57;94165.09;;;6.05;100.00
24280;BME280;12395;42.808;23.408;2023-11-18T01:00:23;94173.59;;;6.07;100.00
24280;BME280;12395;42.808;23.408;2023-11-18T01:02:51;94186.56;;;6.09;100.00
24280;BME280;12395;42.808;23.408;2023-11-18T01:05:18;94191.19;;;6.00;100.00
24280;BME280;12395;42.808;23.408;2023-11-18T01:07:44;94184.88;;;5.88;100.00
24280;BME280;12395;42.808;23.408;2023-11-18T01:10:10;94174.75;;;5.85;100.00
24280;BME280;12395;42.808;23.408;2023-11-18T01:12:36;94194.38;;;5.89;100.00
24280;BME280;12395;42.808;23.408;2023-11-18T01:15:02;94185.44;;;5.84;100.00
24280;BME280;12395;42.808;23.408;2023-11-18T01:17:28;94181.16;;;5.76;100.00
24280;BME280;12395;42.808;23.408;2023-11-18T01:19:54;94204.56;;;5.71;100.00
24280;BME280;12395;42.808;23.408;2023-11-18T01:22:20;94203.94;;;5.69;100.00
24280;BME280;12395;42.808;23.408;2023-11-18T01:24:46;94210.00;;;5.63;100.00
24280;BME280;12395;42.808;23.408;2023-11-18T01:27:11;94210.59;;;5.65;100.00
24280;BME280;12395;42.808;23.408;2023-11-18T01:29:37;94201.50;;;5.61;100.00
24280;BME280;12395;42.808;23.408;2023-11-18T01:32:03;94203.09;;;5.56;100.00
24280;BME280;12395;42.808;23.408;2023-11-18T01:34:38;94215.66;;;5.60;100.00
24280;BME280;12395;42.808;23.408;2023-11-18T01:37:08;94195.59;;;5.53;100.00
24280;BME280;12395;42.808;23.408;2023-11-18T01:39:35;94212.00;;;5.61;100.00
24280;BME280;12395;42.808;23.408;2023-11-18T01:42:01;94215.03;;;5.65;100.00
24280;BME280;12395;42.808;23.408;2023-11-18T01:44:30;94215.41;;;5.55;100.00
24280;BME280;12395;42.808;23.408;2023-11-18T01:46:59;94216.22;;;5.56;100.00
24280;BME280;12395;42.808;23.408;2023-11-18T01:49:31;94218.50;;;5.65;100.00
24280;BME280;12395;42.808;23.408;2023-11-18T01:51:57;94223.97;;;5.70;100.00
24280;BME280;12395;42.808;23.408;2023-11-18T01:54:24;94221.13;;;5.65;100.00
24280;BME280;12395;42.808;23.408;2023-11-18T01:56:51;94225.59;;;5.71;100.00
24280;BME280;12395;42.808;23.408;2023-11-18T01:59:20;94208.59;;;5.67;100.00
24280;BME280;12395;42.808;23.408;2023-11-18T02:01:54;94211.00;;;5.62;100.00
24280;BME280;12395;42.808;23.408;2023-11-18T02:04:24;94210.00;;;5.63;100.00
24280;BME280;12395;42.808;23.408;2023-11-18T02:06:50;94204.69;;;5.57;100.00
24280;BME280;12395;42.808;23.408;2023-11-18T02:09:18;94208.50;;;5.54;100.00
24280;BME280;12395;42.808;23.408;2023-11-18T02:11:53;94214.59;;;5.55;100.00
24280;BME280;12395;42.808;23.408;2023-11-18T02:14:24;94208.44;;;5.41;100.00
24280;BME280;12395;42.808;23.408;2023-11-18T02:16:52;94222.22;;;5.49;100.00
24280;BME280;12395;42.808;23.408;2023-11-18T02:19:24;94222.22;;;5.49;100.00
24280;BME280;12395;42.808;23.408;2023-11-18T02:21:50;94228.09;;;5.45;100.00
24280;BME280;12395;42.808;23.408;2023-11-18T02:24:30;94231.47;;;5.39;100.00
24280;BME280;12395;42.808;23.408;2023-11-18T02:26:59;94219.13;;;5.39;100.00
24280;BME280;12395;42.808;23.408;2023-11-18T02:29:27;94212.00;;;5.27;100.00
24280;BME280;12395;42.808;23.408;2023-11-18T02:31:58;94206.78;;;5.06;100.00
24280;BME280;12395;42.808;23.408;2023-11-18T02:34:29;94206.53;;;5.01;100.00
24280;BME280;12395;42.808;23.408;2023-11-18T02:36:58;94236.09;;;5.09;100.00
24280;BME280;12395;42.808;23.408;2023-11-18T02:39:43;94233.59;;;5.01;100.00
24280;BME280;12395;42.808;23.408;2023-11-18T02:42:10;94227.44;;;4.88;100.00
24280;BME280;12395;42.808;23.408;2023-11-18T02:44:38;94244.38;;;4.85;100.00
24280;BME280;12395;42.808;23.408;2023-11-18T02:47:04;94253.44;;;4.83;100.00
24280;BME280;12395;42.808;23.408;2023-11-18T02:49:34;94271.47;;;4.92;100.00
24280;BME280;12395;42.808;23.408;2023-11-18T02:52:00;94231.31;;;4.70;100.00
24280;BME280;12395;42.808;23.408;2023-11-18T02:54:25;94242.69;;;4.78;100.00
24280;BME280;12395;42.808;23.408;2023-11-18T02:56:51;94261.94;;;4.85;100.00
24280;BME280;12395;42.808;23.408;2023-11-18T02:59:17;94259.59;;;4.96;100.00
24280;BME280;12395;42.808;23.408;2023-11-18T03:01:42;94220.59;;;4.65;100.00
24280;BME280;12395;42.808;23.408;2023-11-18T03:04:08;94243.38;;;4.86;100.00
24280;BME280;12395;42.808;23.408;2023-11-18T03:06:33;94239.50;;;4.82;100.00
24280;BME280;12395;42.808;23.408;2023-11-18T03:09:00;94254.94;;;4.92;100.00
24280;BME280;12395;42.808;23.408;2023-11-18T03:11:26;94252.06;;;4.87;100.00
24280;BME280;12395;42.808;23.408;2023-11-18T03:13:59;94254.44;;;4.82;100.00
24280;BME280;12395;42.808;23.408;2023-11-18T03:16:25;94244.06;;;4.74;100.00
24280;BME280;12395;42.808;23.408;2023-11-18T03:18:50;94255.44;;;4.81;100.00
24280;BME280;12395;42.808;23.408;2023-11-18T03:21:16;94248.28;;;4.68;100.00
24280;BME280;12395;42.808;23.408;2023-11-18T03:23:42;94255.81;;;4.56;100.00
24280;BME280;12395;42.808;23.408;2023-11-18T03:26:08;94267.25;;;4.49;100.00
24280;BME280;12395;42.808;23.408;2023-11-18T03:28:35;94274.09;;;4.50;100.00
24280;BME280;12395;42.808;23.408;2023-11-18T03:31:05;94286.22;;;4.51;100.00
24280;BME280;12395;42.808;23.408;2023-11-18T03:33:31;94295.50;;;4.53;100.00
24280;BME280;12395;42.808;23.408;2023-11-18T03:35:57;94285.59;;;4.49;100.00
24280;BME280;12395;42.808;23.408;2023-11-18T03:38:23;94264.78;;;4.47;100.00
24280;BME280;12395;42.808;23.408;2023-11-18T03:40:49;94262.78;;;4.49;100.00
24280;BME280;12395;42.808;23.408;2023-11-18T03:43:14;94272.28;;;4.50;100.00
24280;BME280;12395;42.808;23.408;2023-11-18T03:45:40;94271.66;;;4.48;100.00
24280;BME280;12395;42.808;23.408;2023-11-18T03:48:06;94267.78;;;4.44;100.00
24280;BME280;12395;42.808;23.408;2023-11-18T03:50:33;94267.59;;;4.46;100.00
24280;BME280;12395;42.808;23.408;2023-11-18T03:52:58;94278.38;;;4.36;100.00
24280;BME280;12395;42.808;23.408;2023-11-18T03:55:24;94304.13;;;4.47;100.00
24280;BME280;12395;42.808;23.408;2023-11-18T03:57:51;94291.22;;;4.46;100.00
24280;BME280;12395;42.808;23.408;2023-11-18T04:00:17;94294.09;;;4.51;100.00
24280;BME280;12395;42.808;23.408;2023-11-18T04:02:42;94289.97;;;4.42;100.00
24280;BME280;12395;42.808;23.408;2023-11-18T04:05:08;94294.38;;;4.41;100.00
24280;BME280;12395;42.808;23.408;2023-11-18T04:07:34;94285.50;;;4.21;100.00
24280;BME280;12395;42.808;23.408;2023-11-18T04:09:59;94294.53;;;4.19;100.00
24280;BME280;12395;42.808;23.408;2023-11-18T04:12:25;94300.66;;;4.11;100.00
24280;BME280;12395;42.808;23.408;2023-11-18T04:14:52;94295.34;;;4.05;100.00
24280;BME280;12395;42.808;23.408;2023-11-18T04:17:17;94289.03;;;3.99;100.00
24280;BME280;12395;42.808;23.408;2023-11-18T04:19:43;94296.28;;;3.97;100.00
24280;BME280;12395;42.808;23.408;2023-11-18T04:22:08;94286.53;;;3.91;100.00
24280;BME280;12395;42.808;23.408;2023-11-18T04:24:34;94280.81;;;3.87;100.00
24280;BME280;12395;42.808;23.408;2023-11-18T04:27:00;94272.88;;;3.81;100.00
24280;BME280;12395;42.808;23.408;2023-11-18T04:29:25;94279.75;;;3.82;100.00
24280;BME280;12395;42.808;23.408;2023-11-18T04:31:52;94288.78;;;3.79;100.00
24280;BME280;12395;42.808;23.408;2023-11-18T04:34:18;94283.09;;;3.76;100.00
24280;BME280;12395;42.808;23.408;2023-11-18T04:36:44;94293.91;;;3.73;100.00
24280;BME280;12395;42.808;23.408;2023-11-18T04:39:10;94278.03;;;3.60;100.00
24280;BME280;12395;42.808;23.408;2023-11-18T04:41:40;94295.38;;;3.61;100.00
24280;BME280;12395;42.808;23.408;2023-11-18T04:44:06;94291.75;;;3.47;100.00
24280;BME280;12395;42.808;23.408;2023-11-18T04:46:31;94293.91;;;3.44;100.00
24280;BME280;12395;42.808;23.408;2023-11-18T04:48:56;94301.84;;;3.36;100.00
24280;BME280;12395;42.808;23.408;2023-11-18T04:51:22;94297.16;;;3.31;100.00
24280;BME280;12395;42.808;23.408;2023-11-18T04:53:48;94309.75;;;3.28;100.00
24280;BME280;12395;42.808;23.408;2023-11-18T04:56:14;94302.63;;;3.22;100.00
24280;BME280;12395;42.808;23.408;2023-11-18T04:58:42;94309.84;;;3.20;100.00
24280;BME280;12395;42.808;23.408;2023-11-18T05:01:08;94321.88;;;3.29;100.00
24280;BME280;12395;42.808;23.408;2023-11-18T05:03:34;94320.72;;;3.31;100.00
24280;BME280;12395;42.808;23.408;2023-11-18T05:06:00;94314.72;;;3.23;100.00
24280;BME280;12395;42.808;23.408;2023-11-18T05:08:25;94311.31;;;3.37;100.00
24280;BME280;12395;42.808;23.408;2023-11-18T05:10:51;94307.00;;;3.44;100.00
24280;BME280;12395;42.808;23.408;2023-11-18T05:13:17;94321.66;;;3.53;100.00
24280;BME280;12395;42.808;23.408;2023-11-18T05:15:44;94322.81;;;3.50;100.00
24280;BME280;12395;42.808;23.408;2023-11-18T05:18:13;94292.66;;;3.40;100.00
24280;BME280;12395;42.808;23.408;2023-11-18T05:20:42;94306.81;;;3.45;100.00
24280;BME280;12395;42.808;23.408;2023-11-18T05:23:07;94307.16;;;3.42;100.00
24280;BME280;12395;42.808;23.408;2023-11-18T05:25:36;94311.22;;;3.45;100.00
24280;BME280;12395;42.808;23.408;2023-11-18T05:28:01;94306.38;;;3.42;100.00
24280;BME280;12395;42.808;23.408;2023-11-18T05:30:27;94301.19;;;3.34;100.00
24280;BME280;12395;42.808;23.408;2023-11-18T05:32:52;94309.97;;;3.41;100.00
24280;BME280;12395;42.808;23.408;2023-11-18T05:35:17;94312.34;;;3.50;100.00
24280;BME280;12395;42.808;23.408;2023-11-18T05:37:43;94314.84;;;3.44;100.00
24280;BME280;12395;42.808;23.408;2023-11-18T05:40:09;94311.59;;;3.42;100.00
24280;BME280;12395;42.808;23.408;2023-11-18T05:42:36;94315.28;;;3.33;100.00
24280;BME280;12395;42.808;23.408;2023-11-18T05:45:04;94291.84;;;3.17;100.00
24280;BME280;12395;42.808;23.408;2023-11-18T05:47:30;94317.34;;;3.23;100.00
24280;BME280;12395;42.808;23.408;2023-11-18T05:49:55;94319.34;;;3.21;100.00
24280;BME280;12395;42.808;23.408;2023-11-18T05:52:22;94285.88;;;3.08;100.00
24280;BME280;12395;42.808;23.408;2023-11-18T05:54:48;94307.94;;;3.13;100.00
24280;BME280;12395;42.808;23.408;2023-11-18T05:57:17;94315.16;;;3.11;100.00
24280;BME280;12395;42.808;23.408;2023-11-18T05:59:43;94302.81;;;2.97;100.00
24280;BME280;12395;42.808;23.408;2023-11-18T06:02:08;94305.81;;;2.94;100.00
24280;BME280;12395;42.808;23.408;2023-11-18T06:04:36;94303.94;;;3.03;100.00
24280;BME280;12395;42.808;23.408;2023-11-18T06:07:02;94291.03;;;3.01;100.00
24280;BME280;12395;42.808;23.408;2023-11-18T06:09:27;94264.81;;;2.87;100.00
24280;BME280;12395;42.808;23.408;2023-11-18T06:11:53;94290.38;;;2.99;100.00
24280;BME280;12395;42.808;23.408;2023-11-18T06:14:20;94284.34;;;2.99;100.00
24280;BME280;12395;42.808;23.408;2023-11-18T06:16:47;94285.31;;;2.98;100.00
24280;BME280;12395;42.808;23.408;2023-11-18T06:19:13;94289.22;;;3.02;100.00
24280;BME280;12395;42.808;23.408;2023-11-18T06:21:40;94312.22;;;3.06;100.00
24280;BME280;12395;42.808;23.408;2023-11-18T06:24:06;94312.84;;;2.94;100.00
24280;BME280;12395;42.808;23.408;2023-11-18T06:26:32;94320.72;;;3.08;100.00
24280;BME280;12395;42.808;23.408;2023-11-18T06:29:00;94313.28;;;2.97;100.00
24280;BME280;12395;42.808;23.408;2023-11-18T06:31:25;94316.50;;;3.07;100.00
24280;BME280;12395;42.808;23.408;2023-11-18T06:33:51;94311.19;;;3.16;100.00
24280;BME280;12395;42.808;23.408;2023-11-18T06:36:18;94324.75;;;3.34;100.00
24280;BME280;12395;42.808;23.408;2023-11-18T06:38:44;94325.47;;;3.28;100.00
24280;BME280;12395;42.808;23.408;2023-11-18T06:41:10;94322.06;;;3.27;100.00
24280;BME280;12395;42.808;23.408;2023-11-18T06:43:39;94317.28;;;3.31;100.00
24280;BME280;12395;42.808;23.408;2023-11-18T06:46:18;94317.28;;;3.31;100.00
24280;BME280;12395;42.808;23.408;2023-11-18T06:48:47;94319.50;;;3.34;100.00
24280;BME280;12395;42.808;23.408;2023-11-18T06:51:13;94333.34;;;3.42;100.00
24280;BME280;12395;42.808;23.408;2023-11-18T06:53:40;94330.81;;;3.49;100.00
24280;BME280;12395;42.808;23.408;2023-11-18T06:56:06;94339.25;;;3.59;100.00
24280;BME280;12395;42.808;23.408;2023-11-18T06:58:32;94347.47;;;3.70;100.00
24280;BME280;12395;42.808;23.408;2023-11-18T07:00:57;94343.25;;;3.84;100.00
24280;BME280;12395;42.808;23.408;2023-11-18T07:03:23;94334.31;;;3.93;100.00
24280;BME280;12395;42.808;23.408;2023-11-18T07:05:49;94343.53;;;4.04;100.00
24280;BME280;12395;42.808;23.408;2023-11-18T07:08:14;94345.41;;;4.24;100.00
24280;BME280;12395;42.808;23.408;2023-11-18T07:10:40;94358.16;;;4.27;100.00
24280;BME280;12395;42.808;23.408;2023-11-18T07:13:06;94375.88;;;4.25;100.00
24280;BME280;12395;42.808;23.408;2023-11-18T07:15:34;94361.03;;;4.18;100.00
24280;BME280;12395;42.808;23.408;2023-11-18T07:17:59;94356.09;;;4.23;100.00
24280;BME280;12395;42.808;23.408;2023-11-18T07:20:26;94369.63;;;4.26;100.00
24280;BME280;12395;42.808;23.408;2023-11-18T07:22:52;94346.88;;;4.12;100.00
24280;BME280;12395;42.808;23.408;2023-11-18T07:25:17;94360.97;;;4.11;100.00
24280;BME280;12395;42.808;23.408;2023-11-18T07:27:43;94361.44;;;4.15;100.00
24280;BME280;12395;42.808;23.408;2023-11-18T07:30:08;94360.53;;;4.08;100.00
24280;BME280;12395;42.808;23.408;2023-11-18T07:32:36;94350.13;;;4.00;100.00
24280;BME280;12395;42.808;23.408;2023-11-18T07:35:02;94365.66;;;4.01;100.00
24280;BME280;12395;42.808;23.408;2023-11-18T07:37:27;94365.13;;;4.06;100.00
24280;BME280;12395;42.808;23.408;2023-11-18T07:39:52;94364.22;;;4.13;100.00
24280;BME280;12395;42.808;23.408;2023-11-18T07:42:20;94356.00;;;4.02;99.59
24280;BME280;12395;42.808;23.408;2023-11-18T07:44:46;94361.88;;;3.89;100.00
24280;BME280;12395;42.808;23.408;2023-11-18T07:47:13;94364.84;;;3.71;100.00
24280;BME280;12395;42.808;23.408;2023-11-18T07:49:41;94364.19;;;3.55;100.00
24280;BME280;12395;42.808;23.408;2023-11-18T07:52:06;94373.19;;;3.52;100.00
24280;BME280;12395;42.808;23.408;2023-11-18T07:54:32;94314.88;;;3.21;100.00
24280;BME280;12395;42.808;23.408;2023-11-18T07:56:58;94360.81;;;3.46;100.00
24280;BME280;12395;42.808;23.408;2023-11-18T07:59:23;94357.28;;;3.39;100.00
24280;BME280;12395;42.808;23.408;2023-11-18T08:01:49;94356.75;;;3.44;100.00
24280;BME280;12395;42.808;23.408;2023-11-18T08:04:15;94365.78;;;3.41;100.00
24280;BME280;12395;42.808;23.408;2023-11-18T08:06:41;94349.94;;;3.35;100.00
24280;BME280;12395;42.808;23.408;2023-11-18T08:09:08;94363.38;;;3.32;100.00
24280;BME280;12395;42.808;23.408;2023-11-18T08:11:37;94366.72;;;3.26;100.00
24280;BME280;12395;42.808;23.408;2023-11-18T08:14:04;94366.63;;;3.34;100.00
24280;BME280;12395;42.808;23.408;2023-11-18T08:16:29;94346.78;;;3.25;100.00
24280;BME280;12395;42.808;23.408;2023-11-18T08:18:55;94371.72;;;3.35;100.00
24280;BME280;12395;42.808;23.408;2023-11-18T08:21:21;94363.16;;;3.41;100.00
24280;BME280;12395;42.808;23.408;2023-11-18T08:23:47;94360.81;;;3.46;100.00
24280;BME280;12395;42.808;23.408;2023-11-18T08:26:13;94349.06;;;3.42;100.00
24280;BME280;12395;42.808;23.408;2023-11-18T08:28:39;94382.25;;;3.64;100.00
24280;BME280;12395;42.808;23.408;2023-11-18T08:31:05;94370.16;;;3.63;100.00
24280;BME280;12395;42.808;23.408;2023-11-18T08:33:31;94379.72;;;3.56;100.00
24280;BME280;12395;42.808;23.408;2023-11-18T08:35:57;94366.72;;;3.63;100.00
24280;BME280;12395;42.808;23.408;2023-11-18T08:38:22;94363.03;;;3.72;100.00
24280;BME280;12395;42.808;23.408;2023-11-18T08:40:47;94365.03;;;3.84;100.00
24280;BME280;12395;42.808;23.408;2023-11-18T08:43:14;94379.31;;;3.97;100.00
24280;BME280;12395;42.808;23.408;2023-11-18T08:45:41;94372.25;;;3.82;100.00
24280;BME280;12395;42.808;23.408;2023-11-18T08:48:07;94377.53;;;3.60;100.00
24280;BME280;12395;42.808;23.408;2023-11-18T08:50:34;94392.81;;;3.56;100.00
24280;BME280;12395;42.808;23.408;2023-11-18T08:53:00;94380.03;;;3.39;100.00
24280;BME280;12395;42.808;23.408;2023-11-18T08:55:30;94379.78;;;3.48;100.00
24280;BME280;12395;42.808;23.408;2023-11-18T08:58:06;94398.63;;;3.44;100.00
24280;BME280;12395;42.808;23.408;2023-11-18T09:00:42;94386.06;;;3.39;100.00
24280;BME280;12395;42.808;23.408;2023-11-18T09:03:21;94372.59;;;3.28;100.00
24280;BME280;12395;42.808;23.408;2023-11-18T09:05:55;94371.03;;;3.19;100.00
24280;BME280;12395;42.808;23.408;2023-11-18T09:10:53;94385.22;;;3.24;100.00
24280;BME280;12395;42.808;23.408;2023-11-18T09:13:20;94373.59;;;3.27;100.00
24280;BME280;12395;42.808;23.408;2023-11-18T09:15:48;94365.13;;;3.17;100.00
24280;BME280;12395;42.808;23.408;2023-11-18T09:18:13;94389.56;;;3.32;100.00
24280;BME280;12395;42.808;23.408;2023-11-18T09:20:38;94382.94;;;3.21;100.00
24280;BME280;12395;42.808;23.408;2023-11-18T09:23:05;94375.19;;;3.28;100.00
24280;BME280;12395;42.808;23.408;2023-11-18T09:25:32;94385.66;;;3.28;100.00
24280;BME280;12395;42.808;23.408;2023-11-18T09:27:58;94375.44;;;3.18;100.00
24280;BME280;12395;42.808;23.408;2023-11-18T09:30:23;94381.13;;;3.22;100.00
24280;BME280;12395;42.808;23.408;2023-11-18T09:32:49;94404.34;;;3.25;100.00
24280;BME280;12395;42.808;23.408;2023-11-18T09:35:16;94401.13;;;3.14;100.00
24280;BME280;12395;42.808;23.408;2023-11-18T09:37:44;94381.78;;;3.24;100.00
24280;BME280;12395;42.808;23.408;2023-11-18T09:40:13;94392.53;;;3.29;100.00
24280;BME280;12395;42.808;23.408;2023-11-18T09:42:39;94361.53;;;3.18;100.00
24280;BME280;12395;42.808;23.408;2023-11-18T09:45:06;94377.03;;;3.27;100.00
24280;BME280;12395;42.808;23.408;2023-11-18T09:47:36;94370.06;;;3.34;100.00
24280;BME280;12395;42.808;23.408;2023-11-18T09:50:08;94365.94;;;3.40;100.00
24280;BME280;12395;42.808;23.408;2023-11-18T09:52:41;94366.94;;;3.39;100.00
24280;BME280;12395;42.808;23.408;2023-11-18T09:55:25;94362.97;;;3.43;100.00
24280;BME280;12395;42.808;23.408;2023-11-18T09:57:56;94356.13;;;3.42;100.00
24280;BME280;12395;42.808;23.408;2023-11-18T10:00:26;94375.72;;;3.46;100.00
24280;BME280;12395;42.808;23.408;2023-11-18T10:02:54;94373.63;;;3.41;100.00
24280;BME280;12395;42.808;23.408;2023-11-18T10:05:22;94367.34;;;3.50;99.90
24280;BME280;12395;42.808;23.408;2023-11-18T10:07:52;94363.88;;;3.50;100.00
24280;BME280;12395;42.808;23.408;2023-11-18T10:10:18;94367.44;;;3.57;100.00
24280;BME280;12395;42.808;23.408;2023-11-18T10:12:50;94365.25;;;3.60;100.00
24280;BME280;12395;42.808;23.408;2023-11-18T10:15:23;94361.81;;;3.60;100.00
24280;BME280;12395;42.808;23.408;2023-11-18T10:17:50;94366.00;;;3.69;100.00
24280;BME280;12395;42.808;23.408;2023-11-18T10:23:11;94359.78;;;3.70;99.00
24280;BME280;12395;42.808;23.408;2023-11-18T10:25:58;94364.91;;;3.63;99.38
24280;BME280;12395;42.808;23.408;2023-11-18T10:31:02;94359.50;;;3.65;98.32
24280;BME280;12395;42.808;23.408;2023-11-18T10:33:35;94360.31;;;3.65;98.68
24280;BME280;12395;42.808;23.408;2023-11-18T10:36:02;94360.22;;;3.59;98.93
24280;BME280;12395;42.808;23.408;2023-11-18T10:38:33;94346.38;;;3.50;98.82
24280;BME280;12395;42.808;23.408;2023-11-18T10:41:04;94329.03;;;3.49;98.48
24280;BME280;12395;42.808;23.408;2023-11-18T10:43:30;94333.81;;;3.46;98.65
24280;BME280;12395;42.808;23.408;2023-11-18T10:46:11;94361.50;;;3.40;99.74
24280;BME280;12395;42.808;23.408;2023-11-18T10:48:43;94335.50;;;3.39;99.79
24280;BME280;12395;42.808;23.408;2023-11-18T10:51:10;94334.88;;;3.37;99.66
24280;BME280;12395;42.808;23.408;2023-11-18T10:53:51;94339.69;;;3.48;100.00
24280;BME280;12395;42.808;23.408;2023-11-18T10:56:29;94343.03;;;3.42;99.10
24280;BME280;12395;42.808;23.408;2023-11-18T10:59:05;94339.13;;;3.38;98.48
24280;BME280;12395;42.808;23.408;2023-11-18T11:01:34;94342.66;;;3.45;97.84
24280;BME280;12395;42.808;23.408;2023-11-18T11:04:04;94336.44;;;3.46;98.33
24280;BME280;12395;42.808;23.408;2023-11-18T11:06:32;94323.25;;;3.54;97.10
24280;BME280;12395;42.808;23.408;2023-11-18T11:08:58;94347.28;;;3.57;96.78
24280;BME280;12395;42.808;23.408;2023-11-18T11:11:25;94350.81;;;3.64;98.46
24280;BME280;12395;42.808;23.408;2023-11-18T11:13:59;94326.81;;;3.61;97.44
24280;BME280;12395;42.808;23.408;2023-11-18T11:16:41;94338.16;;;3.68;96.44
24280;BME280;12395;42.808;23.408;2023-11-18T11:19:23;94320.41;;;3.63;96.72
24280;BME280;12395;42.808;23.408;2023-11-18T11:22:11;94336.38;;;3.83;96.63
24280;BME280;12395;42.808;23.408;2023-11-18T11:27:41;94334.22;;;3.72;95.13
24280;BME280;12395;42.808;23.408;2023-11-18T11:30:28;94335.47;;;3.61;95.34
24280;BME280;12395;42.808;23.408;2023-11-18T11:35:50;94334.06;;;3.51;94.45
24280;BME280;12395;42.808;23.408;2023-11-18T11:38:23;94333.53;;;3.41;96.00
24280;BME280;12395;42.808;23.408;2023-11-18T11:40:49;94324.53;;;3.58;96.91
24280;BME280;12395;42.808;23.408;2023-11-18T11:43:15;94340.72;;;3.61;96.80
24280;BME280;12395;42.808;23.408;2023-11-18T11:45:55;94321.75;;;3.74;95.86
24280;BME280;12395;42.808;23.408;2023-11-18T11:48:23;94320.41;;;3.78;96.97
24280;BME280;12395;42.808;23.408;2023-11-18T11:51:26;94327.25;;;3.93;94.84
24280;BME280;12395;42.808;23.408;2023-11-18T11:54:02;94337.72;;;3.93;95.21
24280;BME280;12395;42.808;23.408;2023-11-18T11:56:40;94339.19;;;3.81;92.84
24280;BME280;12395;42.808;23.408;2023-11-18T11:59:06;94339.19;;;3.81;94.50
24280;BME280;12395;42.808;23.408;2023-11-18T12:01:36;94328.59;;;3.75;94.03
24280;BME280;12395;42.808;23.408;2023-11-18T12:04:09;94341.25;;;3.86;93.84
24280;BME280;12395;42.808;23.408;2023-11-18T12:06:46;94337.53;;;3.66;91.99
24280;BME280;12395;42.808;23.408;2023-11-18T12:09:14;94338.16;;;3.68;92.93
24280;BME280;12395;42.808;23.408;2023-11-18T12:11:48;94367.91;;;3.75;94.25
24280;BME280;12395;42.808;23.408;2023-11-18T12:14:15;94379.28;;;3.67;93.97
24280;BME280;12395;42.808;23.408;2023-11-18T12:17:02;94373.66;;;3.70;94.99
24280;BME280;12395;42.808;23.408;2023-11-18T12:19:55;94345.03;;;3.54;92.73
24280;BME280;12395;42.808;23.408;2023-11-18T12:23:03;94370.91;;;3.72;95.72
24280;BME280;12395;42.808;23.408;2023-11-18T12:25:32;94368.31;;;3.64;96.20
24280;BME280;12395;42.808;23.408;2023-11-18T12:27:57;94362.22;;;3.71;95.40
24280;BME280;12395;42.808;23.408;2023-11-18T12:41:04;94357.94;;;3.70;94.25
24280;BME280;12395;42.808;23.408;2023-11-18T12:49:02;94369.59;;;3.68;96.99
24280;BME280;12395;42.808;23.408;2023-11-18T12:51:31;94347.22;;;3.65;98.35
24280;BME280;12395;42.808;23.408;2023-11-18T12:54:01;94361.72;;;3.53;99.13
24280;BME280;12395;42.808;23.408;2023-11-18T12:56:28;94343.38;;;3.39;99.58
24280;BME280;12395;42.808;23.408;2023-11-18T12:58:55;94373.09;;;3.46;99.60
24280;BME280;12395;42.808;23.408;2023-11-18T13:01:22;94351.28;;;3.31;99.83
24280;BME280;12395;42.808;23.408;2023-11-18T13:03:47;94376.06;;;3.43;100.00
24280;BME280;12395;42.808;23.408;2023-11-18T13:06:13;94371.94;;;3.48;100.00
24280;BME280;12395;42.808;23.408;2023-11-18T13:08:40;94359.56;;;3.57;100.00
24280;BME280;12395;42.808;23.408;2023-11-18T13:11:05;94366.69;;;3.48;100.00
24280;BME280;12395;42.808;23.408;2023-11-18T13:13:36;94381.41;;;3.49;100.00
24280;BME280;12395;42.808;23.408;2023-11-18T13:16:02;94373.16;;;3.38;100.00
24280;BME280;12395;42.808;23.408;2023-11-18T13:18:41;94364.84;;;3.34;100.00
24280;BME280;12395;42.808;23.408;2023-11-18T13:21:06;94377.25;;;3.18;100.00
24280;BME280;12395;42.808;23.408;2023-11-18T13:23:32;94375.50;;;3.33;100.00
24280;BME280;12395;42.808;23.408;2023-11-18T13:25:57;94388.28;;;3.28;100.00
24280;BME280;12395;42.808;23.408;2023-11-18T13:28:25;94386.44;;;3.13;100.00